Time;durP1;ratioP1;P1;durP2;ratioP2;P2;SDS_P1;SDS_P2;PMS_P1;PMS_P2;Temp;Humidity;BMP_temperature;BMP_pressure;BME280_temperature;BME280_humidity;BME280_pressure;Samples;Min_cycle;Max_cycle;Signal;HPM_P1;HPM_P2
2022/01/25 00:10:39;;;;;;;28.00;17.03;;;15.90;60.20;;;;;;5079223;28;20437;-81
2022/01/25 00:24:44;;;;;;;26.47;16.27;;;15.80;60.50;;;;;;5076425;28;20468;-80
2022/01/25 00:27:25;;;;;;;27.77;16.90;;;15.80;60.50;;;;;;5077626;28;20437;-80
2022/01/25 00:30:00;;;;;;;28.40;17.00;;;15.80;60.40;;;;;;5077185;28;20430;-80
2022/01/25 00:32:28;;;;;;;28.80;17.20;;;15.80;60.40;;;;;;5073732;28;20512;-80
2022/01/25 00:34:56;;;;;;;27.70;17.40;;;15.80;60.40;;;;;;5056969;28;20514;-80
2022/01/25 00:37:25;;;;;;;32.27;18.40;;;15.80;60.40;;;;;;5073458;28;20508;-80
2022/01/25 00:39:53;;;;;;;29.93;17.80;;;15.80;60.50;;;;;;5077617;28;20465;-80
2022/01/25 00:42:21;;;;;;;27.60;16.73;;;15.80;60.60;;;;;;5076635;28;20513;-81
2022/01/25 00:44:49;;;;;;;31.60;18.63;;;15.80;60.60;;;;;;5076697;28;20462;-80
2022/01/25 00:47:17;;;;;;;29.80;18.40;;;15.80;60.50;;;;;;5076994;28;20456;-81
2022/01/25 00:49:51;;;;;;;26.03;16.60;;;15.80;60.40;;;;;;5077324;28;20469;-81
2022/01/25 00:52:24;;;;;;;26.73;17.37;;;15.80;60.50;;;;;;5074239;28;20457;-81
2022/01/25 00:54:58;;;;;;;31.17;18.83;;;15.80;60.60;;;;;;5074983;28;20442;-81
2022/01/25 00:57:26;;;;;;;26.70;17.30;;;15.80;60.60;;;;;;5077021;28;20473;-81
2022/01/25 00:59:54;;;;;;;29.47;17.70;;;15.80;61.30;;;;;;5078428;28;20849;-81
2022/01/25 01:02:22;;;;;;;27.83;17.37;;;15.80;60.60;;;;;;5078728;28;20461;-81
2022/01/25 01:04:51;;;;;;;28.60;17.60;;;15.80;60.60;;;;;;5078842;28;20481;-80
2022/01/25 01:07:18;;;;;;;32.13;18.77;;;15.80;60.50;;;;;;5078761;28;20476;-81
2022/01/25 01:09:49;;;;;;;25.33;16.20;;;15.80;60.50;;;;;;5073206;28;20531;-81
2022/01/25 01:12:35;;;;;;;30.10;18.13;;;15.80;60.40;;;;;;5078108;28;20457;-80
2022/01/25 01:15:09;;;;;;;31.90;18.27;;;15.80;60.60;;;;;;5079710;28;20564;-81
2022/01/25 01:29:05;;;;;;;29.67;17.57;;;15.70;60.70;;;;;;5075135;28;20488;-81
2022/01/25 01:31:49;;;;;;;30.13;18.53;;;15.70;60.60;;;;;;5078368;28;20482;-81
2022/01/25 01:34:44;;;;;;;30.73;17.83;;;15.70;60.70;;;;;;5078820;28;20445;-81
2022/01/25 01:37:38;;;;;;;29.57;17.37;;;15.70;60.50;;;;;;5078417;28;20484;-80
2022/01/25 01:40:33;;;;;;;31.20;18.10;;;15.70;60.80;;;;;;5079223;28;20519;-81
2022/01/25 01:43:12;;;;;;;32.97;18.63;;;15.70;60.60;;;;;;5079487;28;20461;-80
2022/01/25 01:45:50;;;;;;;27.77;16.90;;;15.70;60.60;;;;;;5076750;28;20542;-80
2022/01/25 01:48:28;;;;;;;28.40;17.10;;;15.70;60.60;;;;;;5071158;28;20516;-81
2022/01/25 01:50:58;;;;;;;27.93;17.10;;;15.70;60.70;;;;;;5079152;28;20418;-80
2022/01/25 01:53:26;;;;;;;30.77;18.10;;;15.70;60.70;;;;;;5078392;28;20434;-81
2022/01/25 01:55:53;;;;;;;27.60;17.10;;;15.70;60.80;;;;;;5078242;28;20929;-81
2022/01/25 01:58:21;;;;;;;27.50;17.30;;;15.70;60.60;;;;;;5080114;28;20465;-81
2022/01/25 02:00:51;;;;;;;26.60;17.10;;;15.70;60.60;;;;;;5078080;28;20500;-81
2022/01/25 02:03:19;;;;;;;30.33;19.13;;;15.70;60.60;;;;;;5072338;28;20473;-81
2022/01/25 02:05:47;;;;;;;33.67;18.70;;;15.70;60.80;;;;;;5076231;28;20524;-80
2022/01/25 02:08:15;;;;;;;31.77;17.90;;;15.70;60.70;;;;;;5076975;28;20839;-81
2022/01/25 02:10:43;;;;;;;27.60;17.27;;;15.70;60.50;;;;;;5076931;28;20475;-80
2022/01/25 02:13:11;;;;;;;30.43;18.33;;;15.70;60.70;;;;;;5077194;28;20500;-81
2022/01/25 02:15:44;;;;;;;28.87;17.80;;;15.70;60.70;;;;;;5077442;28;20473;-81
2022/01/25 02:23:47;;;;;;;28.70;18.10;;;15.70;60.80;;;;;;5082783;28;20465;-83
2022/01/25 02:26:16;;;;;;;26.73;17.43;;;15.70;60.70;;;;;;5079463;28;20465;-82
2022/01/25 02:28:45;;;;;;;30.27;18.67;;;15.60;61.00;;;;;;5075338;28;20476;-80
2022/01/25 02:31:14;;;;;;;30.23;18.10;;;15.60;60.80;;;;;;5077398;28;20514;-80
2022/01/25 02:33:42;;;;;;;32.00;17.40;;;15.70;60.90;;;;;;5081176;28;20445;-81
2022/01/25 02:36:14;;;;;;;31.80;18.80;;;15.70;60.80;;;;;;5075504;28;20457;-81
2022/01/25 02:38:42;;;;;;;30.37;17.63;;;15.70;60.70;;;;;;5076684;28;20521;-81
2022/01/25 02:41:10;;;;;;;29.03;18.40;;;15.70;60.80;;;;;;5057392;28;20565;-81
2022/01/25 02:43:38;;;;;;;30.37;18.40;;;15.70;60.90;;;;;;5057215;28;20493;-81
2022/01/25 02:48:51;;;;;;;26.33;16.83;;;15.70;60.60;;;;;;5059919;28;20449;-81
2022/01/25 02:51:20;;;;;;;29.63;18.63;;;15.70;60.70;;;;;;5082316;28;20476;-81
2022/01/25 02:53:48;;;;;;;28.73;16.70;;;15.70;60.80;;;;;;5082861;28;20552;-81
2022/01/25 02:56:16;;;;;;;29.90;18.37;;;15.70;60.70;;;;;;5088553;28;20534;-81
2022/01/25 02:58:44;;;;;;;27.27;17.50;;;15.70;60.80;;;;;;5081498;28;20470;-81
2022/01/25 03:01:12;;;;;;;28.00;17.17;;;15.70;60.70;;;;;;5079774;28;20510;-81
2022/01/25 03:03:40;;;;;;;29.10;18.53;;;15.60;60.70;;;;;;5075849;28;20462;-81
2022/01/25 03:06:08;;;;;;;28.13;18.17;;;15.60;60.80;;;;;;5079935;28;20438;-81
2022/01/25 03:08:37;;;;;;;26.70;17.20;;;15.60;60.70;;;;;;5073662;28;20581;-81
2022/01/25 03:11:05;;;;;;;28.13;18.23;;;15.70;60.80;;;;;;5080260;28;20571;-81
2022/01/25 03:13:46;;;;;;;30.70;17.90;;;15.60;60.80;;;;;;5076781;28;20500;-81
2022/01/25 03:16:20;;;;;;;27.00;17.57;;;15.60;60.70;;;;;;5058231;28;20496;-81
2022/01/25 03:18:49;;;;;;;30.30;17.37;;;15.60;60.70;;;;;;5059399;28;20426;-81
2022/01/25 03:21:33;;;;;;;27.40;16.87;;;15.60;60.70;;;;;;5060017;28;20568;-81
2022/01/25 03:24:03;;;;;;;30.33;16.97;;;15.60;60.80;;;;;;5059292;28;20450;-81
2022/01/25 03:26:33;;;;;;;26.57;16.20;;;15.60;60.80;;;;;;5061360;28;20494;-81
2022/01/25 03:29:01;;;;;;;32.90;19.07;;;15.60;60.80;;;;;;5064788;28;20458;-81
2022/01/25 03:31:29;;;;;;;27.80;16.83;;;15.60;60.80;;;;;;5079700;28;20549;-81
2022/01/25 03:33:57;;;;;;;27.77;17.60;;;15.60;60.90;;;;;;5079899;28;20556;-81
2022/01/25 03:36:25;;;;;;;27.57;17.60;;;15.60;60.90;;;;;;5079775;28;20446;-81
2022/01/25 03:38:53;;;;;;;26.80;17.30;;;15.60;60.80;;;;;;5080418;28;20522;-81
2022/01/25 03:41:23;;;;;;;25.63;16.43;;;15.60;60.80;;;;;;5080088;28;20496;-81
2022/01/25 03:43:54;;;;;;;27.40;17.67;;;15.60;60.90;;;;;;5080291;28;20494;-81
2022/01/25 03:46:29;;;;;;;26.73;17.17;;;15.60;61.00;;;;;;5078613;28;20469;-81
2022/01/25 03:51:43;;;;;;;28.73;17.50;;;15.60;60.80;;;;;;5079454;28;20436;-81
2022/01/25 03:54:11;;;;;;;26.67;17.07;;;15.60;60.80;;;;;;5079108;28;20458;-81
2022/01/25 03:56:41;;;;;;;29.13;17.90;;;15.60;60.90;;;;;;5079622;28;20454;-81
2022/01/25 03:59:09;;;;;;;28.00;17.90;;;15.60;60.80;;;;;;5079137;28;20473;-81
2022/01/25 04:01:37;;;;;;;26.20;16.80;;;15.60;61.10;;;;;;5079616;28;20469;-81
2022/01/25 04:04:08;;;;;;;26.27;17.10;;;15.60;60.90;;;;;;5074935;28;20877;-81
2022/01/25 04:06:37;;;;;;;25.00;16.30;;;15.60;61.60;;;;;;5079939;28;20434;-81
2022/01/25 04:09:06;;;;;;;25.93;16.90;;;15.60;60.80;;;;;;5079367;28;20429;-81
2022/01/25 04:11:35;;;;;;;26.13;17.17;;;15.60;60.90;;;;;;5079019;28;20441;-81
2022/01/25 04:14:04;;;;;;;29.10;17.57;;;15.60;60.90;;;;;;5079074;28;20480;-80
2022/01/25 04:16:36;;;;;;;26.83;16.83;;;15.60;60.80;;;;;;5079315;28;20452;-81
2022/01/25 04:19:08;;;;;;;30.00;17.90;;;15.60;60.90;;;;;;5076649;28;20517;-81
2022/01/25 04:24:41;;;;;;;26.93;17.07;;;15.60;60.80;;;;;;5074638;28;20525;-81
2022/01/25 04:24:55;;;;;;;26.03;17.40;;;15.60;60.90;;;;;;5078851;28;20462;-81
2022/01/25 04:27:24;;;;;;;28.40;17.40;;;15.60;60.90;;;;;;5078408;28;20452;-81
2022/01/25 04:29:53;;;;;;;25.83;16.10;;;15.60;60.90;;;;;;5078173;28;20532;-81
2022/01/25 04:32:31;;;;;;;28.23;18.67;;;15.60;61.00;;;;;;5078581;28;20532;-81
2022/01/25 04:35:10;;;;;;;29.17;17.50;;;15.60;61.00;;;;;;5077025;28;20477;-81
2022/01/25 04:48:59;;;;;;;25.00;15.90;;;15.60;61.10;;;;;;5073567;28;20495;-81
2022/01/25 04:54:16;;;;;;;26.80;17.30;;;15.60;61.00;;;;;;5067249;28;20874;-81
2022/01/25 04:56:51;;;;;;;27.13;17.50;;;15.60;61.20;;;;;;5074776;28;20448;-81
2022/01/25 04:59:26;;;;;;;25.63;17.00;;;15.60;60.90;;;;;;5077593;28;20528;-80
2022/01/25 05:02:02;;;;;;;26.10;17.83;;;15.60;61.10;;;;;;5079242;28;20481;-81
2022/01/25 05:04:37;;;;;;;25.70;17.13;;;15.60;60.90;;;;;;5078940;28;20461;-81
2022/01/25 05:07:16;;;;;;;25.80;17.03;;;15.50;61.00;;;;;;5074591;28;20442;-81
2022/01/25 05:09:46;;;;;;;25.47;16.40;;;15.60;61.20;;;;;;5072849;28;20453;-81
2022/01/25 05:12:15;;;;;;;27.90;17.20;;;15.60;60.90;;;;;;5075591;28;20432;-81
2022/01/25 05:14:57;;;;;;;25.37;16.43;;;15.60;61.00;;;;;;5075838;28;20473;-81
2022/01/25 05:17:35;;;;;;;28.50;17.50;;;15.60;61.10;;;;;;5075251;28;20491;-81
2022/01/25 05:22:46;;;;;;;24.90;15.07;;;15.60;61.00;;;;;;5076043;28;20564;-81
2022/01/25 05:25:15;;;;;;;25.50;16.63;;;15.60;61.00;;;;;;5075874;28;20441;-81
2022/01/25 05:27:43;;;;;;;25.83;15.93;;;15.60;60.90;;;;;;5073942;28;20479;-81
2022/01/25 05:30:13;;;;;;;24.53;15.20;;;15.60;61.10;;;;;;5075148;28;20477;-81
2022/01/25 05:32:42;;;;;;;23.47;16.40;;;15.60;60.90;;;;;;5074487;28;20444;-81
2022/01/25 05:35:10;;;;;;;26.10;16.93;;;15.60;61.10;;;;;;5074148;28;20450;-81
2022/01/25 05:37:42;;;;;;;23.40;15.30;;;15.60;61.00;;;;;;5074287;28;20536;-81
2022/01/25 05:40:15;;;;;;;23.30;15.80;;;15.60;61.20;;;;;;5073251;28;20528;-81
2022/01/25 05:42:51;;;;;;;25.60;16.10;;;15.60;61.10;;;;;;5073419;28;20504;-80
2022/01/25 05:45:26;;;;;;;23.67;15.93;;;15.60;61.10;;;;;;5071232;28;20488;-81
2022/01/25 05:47:56;;;;;;;26.00;15.90;;;15.60;61.00;;;;;;5073904;28;20480;-81
2022/01/25 05:50:24;;;;;;;24.10;16.77;;;15.60;60.90;;;;;;5073679;28;20480;-80
2022/01/25 05:52:52;;;;;;;23.17;15.80;;;15.60;60.90;;;;;;5073650;28;20540;-80
2022/01/25 05:55:20;;;;;;;27.37;15.93;;;15.60;61.10;;;;;;5073623;28;20693;-81
2022/01/25 05:57:48;;;;;;;27.33;16.13;;;15.60;61.00;;;;;;5073801;28;20528;-81
2022/01/25 06:00:16;;;;;;;28.37;17.40;;;15.60;60.90;;;;;;5074145;28;20441;-81
2022/01/25 06:02:46;;;;;;;26.53;16.97;;;15.60;61.10;;;;;;5071958;28;20520;-81
2022/01/25 06:05:15;;;;;;;25.10;17.00;;;15.60;61.00;;;;;;5066310;28;20462;-81
2022/01/25 06:07:42;;;;;;;25.80;16.27;;;15.60;61.20;;;;;;5074362;28;20571;-80
2022/01/25 06:10:10;;;;;;;23.33;16.17;;;15.60;61.10;;;;;;5073992;28;20512;-80
2022/01/25 06:12:42;;;;;;;23.33;15.77;;;15.60;61.20;;;;;;5074381;28;20928;-81
2022/01/25 06:15:10;;;;;;;22.87;15.37;;;15.50;61.00;;;;;;5073936;28;20540;-81
2022/01/25 06:17:38;;;;;;;25.23;16.23;;;15.50;61.10;;;;;;5074145;28;20457;-81
2022/01/25 06:20:07;;;;;;;22.70;15.53;;;15.50;61.00;;;;;;5072317;28;20536;-81
2022/01/25 06:22:36;;;;;;;22.20;15.97;;;15.50;61.10;;;;;;5079735;28;20465;-81
2022/01/25 06:25:05;;;;;;;23.27;15.93;;;15.50;61.20;;;;;;5080125;28;20453;-81
2022/01/25 06:27:38;;;;;;;23.93;15.40;;;15.60;61.40;;;;;;5080081;28;20449;-81
2022/01/25 06:30:07;;;;;;;24.50;15.70;;;15.60;61.20;;;;;;5080067;28;20452;-81
2022/01/25 06:32:35;;;;;;;22.80;15.67;;;15.60;61.20;;;;;;5079495;28;20466;-80
2022/01/25 06:35:04;;;;;;;24.87;16.27;;;15.60;61.10;;;;;;5079290;28;20445;-81
2022/01/25 06:37:32;;;;;;;22.77;15.13;;;15.60;61.70;;;;;;5074396;28;20485;-81
2022/01/25 06:40:02;;;;;;;27.30;16.63;;;15.60;61.00;;;;;;5079805;28;20441;-81
2022/01/25 06:42:31;;;;;;;22.80;15.20;;;15.50;60.90;;;;;;5080000;28;20793;-81
2022/01/25 06:45:02;;;;;;;23.23;15.53;;;15.50;61.00;;;;;;5079828;28;20458;-81
2022/01/25 06:47:31;;;;;;;24.60;15.13;;;15.50;61.00;;;;;;5079867;28;20477;-81
2022/01/25 06:49:58;;;;;;;23.60;15.70;;;15.50;60.90;;;;;;5080331;28;20447;-81
2022/01/25 06:52:26;;;;;;;22.20;14.53;;;15.50;60.90;;;;;;5080123;28;20449;-81
2022/01/25 06:54:54;;;;;;;22.03;14.97;;;15.50;61.00;;;;;;5078525;28;20496;-81
2022/01/25 06:57:24;;;;;;;25.27;15.33;;;15.50;61.20;;;;;;5080409;28;20469;-81
2022/01/25 06:59:51;;;;;;;22.57;15.40;;;15.50;61.10;;;;;;5080405;28;20472;-81
2022/01/25 07:02:20;;;;;;;24.17;15.77;;;15.50;61.10;;;;;;5079893;28;20473;-81
2022/01/25 07:04:48;;;;;;;22.30;14.60;;;15.50;60.90;;;;;;5079125;28;20511;-80
2022/01/25 07:07:17;;;;;;;23.07;15.10;;;15.50;61.10;;;;;;5080220;28;20470;-81
2022/01/25 07:09:45;;;;;;;22.83;14.40;;;15.50;61.10;;;;;;5079349;28;20509;-81
2022/01/25 07:12:13;;;;;;;23.63;15.00;;;15.50;60.90;;;;;;5075764;28;20503;-81
2022/01/25 07:14:42;;;;;;;24.83;16.10;;;15.50;61.10;;;;;;5079483;28;20532;-81
2022/01/25 07:17:11;;;;;;;23.67;15.30;;;15.50;61.10;;;;;;5079730;28;20524;-80
2022/01/25 07:19:38;;;;;;;20.10;14.30;;;15.50;60.90;;;;;;5080034;28;20457;-81
2022/01/25 07:22:06;;;;;;;22.27;14.97;;;15.50;61.10;;;;;;5079206;28;20434;-81
2022/01/25 07:24:35;;;;;;;24.30;14.50;;;15.50;61.00;;;;;;5079302;28;21097;-81
2022/01/25 07:27:04;;;;;;;22.77;15.03;;;15.50;60.80;;;;;;5079328;28;20533;-81
2022/01/25 07:29:32;;;;;;;21.70;14.70;;;15.50;60.90;;;;;;5076913;28;20457;-81
2022/01/25 07:32:02;;;;;;;22.03;15.10;;;15.50;61.00;;;;;;5078672;28;20515;-81
2022/01/25 07:34:35;;;;;;;22.53;15.33;;;15.50;61.10;;;;;;5079561;28;20465;-80
2022/01/25 07:37:05;;;;;;;23.23;15.30;;;15.50;61.10;;;;;;5079270;28;20473;-81
2022/01/25 07:39:47;;;;;;;21.17;14.60;;;15.50;61.20;;;;;;5075872;28;20430;-81
2022/01/25 07:42:17;;;;;;;24.13;15.23;;;15.50;61.00;;;;;;5079640;28;20491;-81
2022/01/25 07:44:46;;;;;;;22.43;15.27;;;15.50;61.80;;;;;;5079129;28;20482;-81
2022/01/25 07:47:15;;;;;;;21.77;14.37;;;15.50;61.00;;;;;;5077312;28;20453;-81
2022/01/25 07:49:43;;;;;;;22.37;14.70;;;15.50;61.00;;;;;;5078255;28;20460;-81
2022/01/25 07:52:14;;;;;;;22.17;15.00;;;15.50;61.00;;;;;;5079355;28;20457;-81
2022/01/25 07:54:43;;;;;;;21.63;14.80;;;15.50;61.20;;;;;;5079494;28;20449;-81
2022/01/25 07:57:10;;;;;;;23.77;15.00;;;15.50;61.00;;;;;;5078717;28;20481;-81
2022/01/25 07:59:38;;;;;;;22.50;14.53;;;15.50;60.90;;;;;;5078302;28;20492;-81
2022/01/25 08:02:07;;;;;;;21.00;14.10;;;15.50;61.10;;;;;;5075598;28;20485;-81
2022/01/25 08:04:39;;;;;;;21.77;14.80;;;15.50;60.90;;;;;;5077226;28;20477;-81
2022/01/25 08:07:12;;;;;;;22.60;15.17;;;15.50;61.00;;;;;;5082021;28;20508;-81
2022/01/25 08:09:42;;;;;;;23.63;15.63;;;15.50;60.90;;;;;;5084377;28;20944;-81
2022/01/25 08:12:11;;;;;;;22.53;14.73;;;15.50;60.90;;;;;;5081693;28;20472;-81
2022/01/25 08:14:43;;;;;;;21.50;14.10;;;15.50;60.90;;;;;;5078884;28;20453;-81
2022/01/25 08:17:28;;;;;;;21.33;14.23;;;15.50;60.90;;;;;;5078534;28;20450;-80
2022/01/25 08:20:11;;;;;;;21.97;14.17;;;15.50;61.00;;;;;;5078659;28;20433;-81
2022/01/25 08:22:44;;;;;;;23.93;15.87;;;15.50;61.20;;;;;;5078978;28;20453;-81
2022/01/25 08:25:12;;;;;;;28.60;16.00;;;15.50;61.00;;;;;;5078516;28;20823;-81
2022/01/25 08:27:41;;;;;;;22.97;15.07;;;15.50;60.80;;;;;;5078646;28;20441;-81
2022/01/25 08:30:13;;;;;;;24.03;15.20;;;15.50;60.90;;;;;;5078845;28;20438;-81
2022/01/25 08:32:46;;;;;;;22.87;14.70;;;15.50;61.10;;;;;;5078694;28;20457;-80
2022/01/25 08:35:20;;;;;;;23.60;14.90;;;15.50;61.00;;;;;;5076599;28;20446;-81
2022/01/25 08:37:50;;;;;;;22.73;14.30;;;15.50;60.90;;;;;;5079067;28;20457;-81
2022/01/25 08:40:23;;;;;;;22.23;14.30;;;15.50;60.90;;;;;;5078285;28;20477;-81
2022/01/25 08:42:57;;;;;;;22.90;14.70;;;15.50;60.90;;;;;;5078174;28;20440;-81
2022/01/25 08:45:34;;;;;;;21.50;13.70;;;15.50;61.00;;;;;;5077542;28;20420;-81
2022/01/25 08:48:06;;;;;;;23.97;15.10;;;15.50;60.80;;;;;;5077413;28;20434;-80
2022/01/25 08:50:37;;;;;;;19.73;13.37;;;15.50;60.80;;;;;;5077939;28;20986;-81
2022/01/25 08:53:07;;;;;;;23.30;15.93;;;15.50;61.50;;;;;;5074749;28;20453;-80
2022/01/25 08:55:40;;;;;;;21.10;14.43;;;15.50;60.90;;;;;;5078086;28;20438;-81
2022/01/25 08:58:10;;;;;;;23.80;15.20;;;15.50;60.90;;;;;;5078229;28;20440;-81
2022/01/25 09:00:38;;;;;;;21.53;14.80;;;15.50;60.80;;;;;;5079305;28;20442;-81
2022/01/25 09:03:07;;;;;;;22.40;14.87;;;15.50;60.80;;;;;;5077516;28;20484;-81
2022/01/25 09:05:37;;;;;;;21.33;14.53;;;15.60;60.90;;;;;;5077625;28;20531;-81
2022/01/25 09:08:05;;;;;;;21.60;13.80;;;15.60;60.90;;;;;;5077727;28;20525;-81
2022/01/25 09:10:34;;;;;;;23.93;15.33;;;15.60;60.70;;;;;;5073389;28;20461;-81
2022/01/25 09:13:02;;;;;;;21.50;13.77;;;15.60;60.90;;;;;;5077356;28;20438;-81
2022/01/25 09:15:31;;;;;;;21.80;14.90;;;15.60;60.80;;;;;;5077995;28;20473;-81
2022/01/25 09:17:59;;;;;;;22.37;14.40;;;15.60;60.80;;;;;;5077781;28;20501;-80
2022/01/25 09:20:27;;;;;;;21.73;14.67;;;15.60;60.80;;;;;;5077674;28;20514;-80
2022/01/25 09:22:56;;;;;;;19.93;13.70;;;15.60;60.80;;;;;;5077514;28;20445;-80
2022/01/25 09:25:29;;;;;;;20.53;13.90;;;15.60;60.90;;;;;;5077186;28;20470;-81
2022/01/25 09:27:57;;;;;;;19.30;13.07;;;15.60;60.80;;;;;;5074879;28;20497;-81
2022/01/25 09:30:25;;;;;;;20.63;12.77;;;15.60;60.80;;;;;;5074289;28;20465;-81
2022/01/25 09:32:54;;;;;;;19.90;13.30;;;15.60;60.80;;;;;;5077051;28;20453;-81
2022/01/25 09:35:22;;;;;;;22.27;14.50;;;15.60;60.80;;;;;;5077622;28;20472;-81
2022/01/25 09:37:51;;;;;;;19.47;13.10;;;15.60;60.90;;;;;;5077738;28;20441;-81
2022/01/25 09:40:21;;;;;;;19.77;13.73;;;15.60;60.70;;;;;;5077745;28;20437;-81
2022/01/25 09:42:54;;;;;;;20.57;13.73;;;15.60;60.70;;;;;;5077040;28;20484;-80
2022/01/25 09:45:22;;;;;;;21.60;14.07;;;15.70;60.80;;;;;;5074843;28;20542;-81
2022/01/25 09:47:51;;;;;;;18.87;13.50;;;15.70;60.80;;;;;;5074684;28;20442;-81
2022/01/25 09:50:19;;;;;;;18.77;13.10;;;15.70;60.70;;;;;;5077183;28;20491;-81
2022/01/25 09:52:47;;;;;;;22.73;14.70;;;15.70;60.60;;;;;;5077272;28;20532;-81
2022/01/25 09:55:17;;;;;;;22.03;12.93;;;15.70;60.60;;;;;;5078426;28;20429;-81
2022/01/25 09:57:46;;;;;;;20.83;12.90;;;15.70;60.70;;;;;;5083592;28;20532;-81
2022/01/25 10:00:15;;;;;;;19.20;12.93;;;15.70;60.70;;;;;;5083916;28;20426;-81
2022/01/25 10:02:50;;;;;;;19.13;13.27;;;15.70;60.60;;;;;;5081751;28;20468;-81
2022/01/25 10:05:24;;;;;;;18.90;12.87;;;15.70;60.60;;;;;;5077384;28;20465;-81
2022/01/25 10:07:57;;;;;;;19.77;13.30;;;15.70;60.60;;;;;;5084033;28;20441;-81
2022/01/25 10:10:26;;;;;;;19.60;13.20;;;15.70;60.70;;;;;;5084290;28;20476;-81
2022/01/25 10:12:57;;;;;;;22.07;14.57;;;15.70;60.90;;;;;;5083515;28;20458;-80
2022/01/25 10:15:26;;;;;;;19.67;13.33;;;15.70;60.90;;;;;;5083875;28;20491;-81
2022/01/25 10:18:11;;;;;;;20.10;13.87;;;15.70;60.70;;;;;;5078562;28;20472;-81
2022/01/25 10:20:41;;;;;;;19.90;13.13;;;15.70;60.80;;;;;;5077829;28;20441;-81
2022/01/25 10:23:10;;;;;;;18.43;12.63;;;15.70;60.60;;;;;;5089727;28;20456;-81
2022/01/25 10:25:39;;;;;;;18.00;12.93;;;15.70;60.70;;;;;;5091893;28;20469;-81
2022/01/25 10:28:12;;;;;;;20.03;12.93;;;15.70;60.80;;;;;;5083416;28;20495;-81
2022/01/25 10:30:43;;;;;;;19.30;13.10;;;15.70;60.60;;;;;;5083034;28;20426;-81
2022/01/25 10:33:19;;;;;;;22.23;14.23;;;15.70;60.70;;;;;;5081078;28;20481;-81
2022/01/25 10:35:47;;;;;;;21.40;12.70;;;15.70;60.70;;;;;;5079540;28;20475;-81
2022/01/25 10:38:20;;;;;;;19.67;13.67;;;15.70;60.70;;;;;;5082619;28;20502;-81
2022/01/25 10:40:54;;;;;;;18.33;12.50;;;15.70;60.90;;;;;;5083095;28;20429;-81
2022/01/25 10:43:24;;;;;;;25.70;13.50;;;15.70;60.60;;;;;;5087206;28;20453;-81
2022/01/25 10:46:10;;;;;;;19.07;13.90;;;15.70;60.60;;;;;;5085726;28;20465;-81
2022/01/25 10:48:38;;;;;;;19.80;12.57;;;15.80;60.80;;;;;;5081492;28;20441;-81
2022/01/25 10:51:12;;;;;;;19.30;13.17;;;15.70;60.60;;;;;;5083656;28;20471;-81
2022/01/25 10:53:40;;;;;;;18.67;12.70;;;15.70;60.70;;;;;;5081381;28;20465;-81
2022/01/25 10:56:08;;;;;;;19.70;13.13;;;15.70;60.70;;;;;;5083120;28;20438;-81
2022/01/25 10:58:39;;;;;;;19.90;13.20;;;15.80;60.80;;;;;;5082970;28;20430;-82
2022/01/25 11:01:09;;;;;;;18.80;13.33;;;15.80;60.80;;;;;;5077518;28;20971;-82
2022/01/25 11:03:38;;;;;;;22.03;14.00;;;15.80;60.80;;;;;;5075322;28;20525;-81
2022/01/25 11:06:14;;;;;;;22.17;13.23;;;15.80;60.70;;;;;;5078823;28;20588;-81
2022/01/25 11:08:43;;;;;;;20.37;13.33;;;15.80;60.50;;;;;;5074861;28;20510;-82
2022/01/25 11:11:12;;;;;;;18.80;12.43;;;15.80;60.50;;;;;;5074361;28;20481;-82
2022/01/25 11:13:47;;;;;;;18.97;12.90;;;15.80;60.40;;;;;;5075783;28;20545;-82
2022/01/25 11:16:15;;;;;;;21.93;14.10;;;15.80;60.40;;;;;;5077341;28;20476;-82
2022/01/25 11:18:43;;;;;;;26.60;14.47;;;15.80;60.40;;;;;;5077407;28;20472;-82
2022/01/25 11:21:11;;;;;;;20.10;13.60;;;15.80;60.20;;;;;;5077522;28;20434;-82
2022/01/25 11:23:41;;;;;;;20.13;13.10;;;15.80;60.20;;;;;;5076893;28;20488;-82
2022/01/25 11:26:10;;;;;;;19.10;13.10;;;15.80;60.20;;;;;;5076930;28;20523;-82
2022/01/25 11:28:38;;;;;;;20.77;14.03;;;15.80;60.00;;;;;;5072710;28;20510;-82
2022/01/25 11:31:10;;;;;;;20.20;13.20;;;15.80;60.00;;;;;;5077222;28;20503;-82
2022/01/25 11:33:41;;;;;;;21.07;13.43;;;15.80;59.80;;;;;;5076973;28;20521;-82
2022/01/25 11:36:09;;;;;;;19.27;13.57;;;15.80;59.90;;;;;;5077251;28;20422;-81
2022/01/25 11:38:41;;;;;;;21.80;14.30;;;15.80;59.80;;;;;;5078189;28;20458;-82
2022/01/25 11:41:10;;;;;;;22.17;13.60;;;15.80;59.80;;;;;;5081989;28;20442;-82
2022/01/25 11:43:39;;;;;;;22.13;13.87;;;15.80;59.80;;;;;;5082474;28;20453;-82
2022/01/25 11:46:08;;;;;;;22.60;14.30;;;15.90;59.90;;;;;;5078086;28;20972;-82
2022/01/25 11:48:39;;;;;;;20.40;13.30;;;15.80;59.80;;;;;;5078791;28;20459;-82
2022/01/25 11:51:15;;;;;;;23.10;13.90;;;15.90;59.70;;;;;;5073149;28;20438;-82
2022/01/25 11:53:44;;;;;;;22.40;13.93;;;15.90;59.70;;;;;;5091353;28;20441;-82
2022/01/25 11:56:13;;;;;;;20.73;13.90;;;15.90;59.60;;;;;;5082222;28;20438;-82
2022/01/25 11:58:41;;;;;;;23.47;14.73;;;15.90;59.50;;;;;;5081212;28;20438;-82
2022/01/25 12:01:18;;;;;;;20.73;13.30;;;15.90;59.60;;;;;;5082441;28;20448;-83
2022/01/25 12:03:47;;;;;;;25.20;13.97;;;15.90;59.50;;;;;;5079889;28;20596;-83
2022/01/25 12:06:20;;;;;;;23.17;14.53;;;15.90;59.50;;;;;;5079376;28;20499;-82
2022/01/25 12:09:08;;;;;;;20.13;13.73;;;15.90;59.50;;;;;;5080402;28;20430;-81
2022/01/25 12:11:42;;;;;;;24.47;14.17;;;15.90;59.40;;;;;;5075623;28;20491;-83
2022/01/25 12:14:11;;;;;;;27.80;14.87;;;15.90;59.40;;;;;;5075083;28;20477;-81
2022/01/25 12:16:43;;;;;;;24.50;14.23;;;15.90;59.30;;;;;;5098057;28;20472;-81
2022/01/25 12:19:12;;;;;;;23.50;13.67;;;15.90;59.40;;;;;;5075242;28;20442;-81
2022/01/25 12:22:15;;;;;;;23.43;15.60;;;15.90;59.30;;;;;;5073735;28;20449;-81
2022/01/25 12:24:53;;;;;;;21.73;14.00;;;15.90;59.20;;;;;;5011533;28;20459;-81
2022/01/25 12:27:25;;;;;;;21.90;13.87;;;15.90;59.30;;;;;;5068736;28;20988;-81
2022/01/25 12:30:00;;;;;;;24.63;14.27;;;15.90;59.30;;;;;;5075532;28;20437;-81
2022/01/25 12:32:33;;;;;;;23.03;13.53;;;15.90;59.20;;;;;;5075666;28;20430;-81
2022/01/25 12:35:11;;;;;;;25.87;14.83;;;15.90;59.10;;;;;;5076732;28;20460;-81
2022/01/25 12:37:56;;;;;;;22.70;14.73;;;15.90;59.10;;;;;;5074343;28;20469;-81
2022/01/25 12:40:38;;;;;;;23.50;14.30;;;15.90;59.10;;;;;;5078318;28;20414;-81
2022/01/25 12:43:07;;;;;;;20.50;13.80;;;15.90;59.20;;;;;;5075620;28;20470;-82
2022/01/25 12:45:45;;;;;;;22.03;14.43;;;15.90;59.10;;;;;;5078925;28;20473;-82
2022/01/25 12:48:15;;;;;;;21.83;13.67;;;15.90;59.20;;;;;;5078218;28;20445;-82
2022/01/25 12:50:44;;;;;;;23.63;13.67;;;15.90;59.10;;;;;;5076443;28;20506;-82
2022/01/25 12:53:14;;;;;;;20.63;12.87;;;15.90;59.60;;;;;;5077056;28;20499;-82
2022/01/25 12:55:43;;;;;;;24.33;14.23;;;15.90;59.00;;;;;;5074728;28;20457;-82
2022/01/25 12:58:12;;;;;;;21.80;13.77;;;16.00;59.10;;;;;;5073511;28;20417;-82
2022/01/25 13:00:42;;;;;;;21.53;13.33;;;16.00;59.00;;;;;;5077336;28;20472;-82
2022/01/25 13:03:23;;;;;;;23.23;14.00;;;16.00;59.00;;;;;;5076713;28;20461;-82
2022/01/25 13:05:53;;;;;;;22.93;14.20;;;16.00;58.90;;;;;;5076666;28;20469;-82
2022/01/25 13:08:25;;;;;;;21.80;13.50;;;15.90;58.80;;;;;;5075277;28;20472;-82
2022/01/25 13:10:57;;;;;;;23.17;14.87;;;15.90;58.80;;;;;;5076342;28;20429;-82
2022/01/25 13:13:44;;;;;;;20.53;13.17;;;15.90;58.90;;;;;;5075073;28;20473;-82
2022/01/25 13:16:12;;;;;;;21.17;13.40;;;16.00;58.90;;;;;;5068732;28;20467;-82
2022/01/25 13:18:42;;;;;;;20.90;13.40;;;16.00;58.80;;;;;;5075076;28;20438;-82
2022/01/25 13:21:10;;;;;;;22.10;13.70;;;15.90;58.80;;;;;;5077510;28;20458;-82
2022/01/25 13:23:50;;;;;;;19.87;13.13;;;15.90;58.80;;;;;;5076331;28;20972;-82
2022/01/25 13:26:21;;;;;;;22.00;13.60;;;15.90;58.90;;;;;;5074610;28;20465;-81
2022/01/25 13:28:55;;;;;;;21.90;13.10;;;15.90;58.80;;;;;;5071078;28;20489;-83
2022/01/25 13:31:26;;;;;;;21.83;12.30;;;15.90;58.60;;;;;;5074820;28;20946;-83
2022/01/25 13:34:01;;;;;;;22.07;13.40;;;15.90;58.80;;;;;;5073489;28;20453;-83
2022/01/25 13:36:31;;;;;;;21.30;13.63;;;15.90;58.90;;;;;;5076844;28;20457;-83
2022/01/25 13:39:00;;;;;;;19.83;13.07;;;15.90;58.90;;;;;;5076130;28;20467;-83
2022/01/25 13:41:39;;;;;;;18.00;11.67;;;15.90;58.90;;;;;;5077971;28;20434;-85
2022/01/25 13:46:53;;;;;;;17.87;12.33;;;15.90;59.00;;;;;;5072266;28;20577;-84
2022/01/25 13:49:23;;;;;;;19.67;12.77;;;15.90;59.10;;;;;;5071156;28;20468;-85
2022/01/25 13:51:53;;;;;;;23.13;12.30;;;15.90;59.00;;;;;;5077080;28;20480;-85